Time;durP1;ratioP1;P1;durP2;ratioP2;P2;SDS_P1;SDS_P2;PMS_P1;PMS_P2;Temp;Humidity;BMP_temperature;BMP_pressure;BME280_temperature;BME280_humidity;BME280_pressure;Samples;Min_cycle;Max_cycle;Signal;HPM_P1;HPM_P2
2023/03/01 00:00:46;;;;;;;15.70;10.83;;;;;;;;;;5032518;28;20181;-79
2023/03/01 00:03:13;;;;;;;19.70;11.67;;;;;;;;;;5048070;28;20189;-79
2023/03/01 00:05:48;;;;;;;16.13;10.50;;;;;;;;;;5049142;28;20669;-80
2023/03/01 00:08:14;;;;;;;16.47;11.70;;;;;;;;;;5030228;28;20225;-78
2023/03/01 00:10:40;;;;;;;16.63;11.27;;;;;;;;;;5016487;28;20198;-79
2023/03/01 00:13:07;;;;;;;16.17;10.90;;;;;;;;;;5016321;28;20556;-79
2023/03/01 00:15:34;;;;;;;16.97;10.80;;;;;;;;;;5019200;28;20189;-80
2023/03/01 00:18:00;;;;;;;17.70;12.27;;;;;;;;;;5031653;28;20735;-79
2023/03/01 00:20:27;;;;;;;18.13;12.30;;;;;;;;;;5014972;28;20194;-79
2023/03/01 00:22:53;;;;;;;16.17;11.27;;;;;;;;;;5036482;28;20186;-78
2023/03/01 00:25:19;;;;;;;17.17;11.30;;;;;;;;;;5041017;28;20197;-80
2023/03/01 00:27:47;;;;;;;18.23;11.17;;;;;;;;;;5028041;28;20284;-79
2023/03/01 00:30:13;;;;;;;17.67;11.03;;;;;;;;;;5038016;28;20260;-80
2023/03/01 00:32:40;;;;;;;17.10;11.83;;;;;;;;;;5052764;28;20202;-79
2023/03/01 00:35:06;;;;;;;18.97;11.60;;;;;;;;;;5026505;28;20204;-80
2023/03/01 00:37:32;;;;;;;18.73;11.93;;;;;;;;;;5038932;28;20224;-79
2023/03/01 00:39:58;;;;;;;20.43;11.40;;;;;;;;;;5053724;28;20210;-79
2023/03/01 00:42:24;;;;;;;18.33;12.07;;;;;;;;;;5019470;28;20232;-79
2023/03/01 00:44:50;;;;;;;19.87;11.73;;;;;;;;;;5051393;28;20234;-79
2023/03/01 00:47:17;;;;;;;19.83;12.50;;;;;;;;;;5036167;28;20543;-79
2023/03/01 00:49:43;;;;;;;17.77;11.80;;;;;;;;;;5036167;28;20228;-80
2023/03/01 00:52:09;;;;;;;17.97;11.77;;;;;;;;;;5033842;28;20977;-80
2023/03/01 00:54:35;;;;;;;18.73;12.30;;;;;;;;;;5035877;28;20196;-80
2023/03/01 00:57:01;;;;;;;21.00;12.87;;;;;;;;;;5055983;28;20177;-80
2023/03/01 00:59:28;;;;;;;15.57;11.97;;;;;;;;;;5054540;28;20193;-79
2023/03/01 01:01:54;;;;;;;16.47;11.53;;;;;;;;;;5044743;28;20678;-79
2023/03/01 01:04:22;;;;;;;16.50;11.67;;;;;;;;;;5050138;28;20195;-80
2023/03/01 01:06:48;;;;;;;15.93;11.07;;;;;;;;;;5053947;28;20190;-79
2023/03/01 01:09:18;;;;;;;18.63;11.17;;;;;;;;;;5054381;28;20181;-78
2023/03/01 01:11:45;;;;;;;17.33;12.13;;;;;;;;;;5055413;28;20688;-79
2023/03/01 01:14:12;;;;;;;20.97;12.67;;;;;;;;;;5050916;28;20178;-79
2023/03/01 01:16:38;;;;;;;18.40;12.13;;;;;;;;;;5035965;28;20178;-78
2023/03/01 01:19:04;;;;;;;16.27;11.63;;;;;;;;;;5035696;28;20197;-79
2023/03/01 01:21:30;;;;;;;21.67;11.97;;;;;;;;;;5048385;28;20719;-79
2023/03/01 01:23:57;;;;;;;17.53;11.90;;;;;;;;;;5027719;28;20599;-78
2023/03/01 01:26:25;;;;;;;18.83;12.40;;;;;;;;;;5030714;28;20368;-80
2023/03/01 01:28:51;;;;;;;16.83;11.90;;;;;;;;;;5029250;28;20194;-79
2023/03/01 01:31:18;;;;;;;16.07;11.80;;;;;;;;;;5040233;28;20268;-80
2023/03/01 01:33:45;;;;;;;19.03;13.07;;;;;;;;;;5021822;28;20653;-80
2023/03/01 01:36:11;;;;;;;19.83;13.03;;;;;;;;;;5033184;28;20217;-80
2023/03/01 01:38:38;;;;;;;17.87;12.73;;;;;;;;;;5051811;28;20243;-80
2023/03/01 01:41:04;;;;;;;22.20;13.63;;;;;;;;;;5031295;28;20237;-80
2023/03/01 01:43:33;;;;;;;21.00;12.87;;;;;;;;;;5047672;28;20247;-80
2023/03/01 01:46:02;;;;;;;19.23;13.17;;;;;;;;;;5033109;28;20194;-80
2023/03/01 01:48:42;;;;;;;18.83;12.53;;;;;;;;;;5029805;28;20609;-80
2023/03/01 01:51:13;;;;;;;20.93;13.57;;;;;;;;;;5028240;28;20224;-80
2023/03/01 01:53:40;;;;;;;19.53;12.73;;;;;;;;;;5030791;28;20216;-80
2023/03/01 01:56:08;;;;;;;19.23;12.63;;;;;;;;;;5016459;28;20214;-80
2023/03/01 01:58:34;;;;;;;20.93;13.17;;;;;;;;;;5032754;28;20189;-80
2023/03/01 02:01:01;;;;;;;18.97;12.87;;;;;;;;;;5027101;28;20297;-80
2023/03/01 02:03:32;;;;;;;19.00;12.83;;;;;;;;;;5037111;28;20274;-80
2023/03/01 02:05:59;;;;;;;21.70;14.27;;;;;;;;;;5033737;28;20209;-80
2023/03/01 02:08:27;;;;;;;20.33;13.73;;;;;;;;;;5035337;28;20190;-80
2023/03/01 02:10:54;;;;;;;20.50;13.70;;;;;;;;;;5022338;28;20228;-79
2023/03/01 02:13:20;;;;;;;20.37;12.97;;;;;;;;;;5034585;28;20213;-80
2023/03/01 02:15:46;;;;;;;20.13;13.30;;;;;;;;;;5052308;28;20197;-80
2023/03/01 02:18:14;;;;;;;20.47;13.27;;;;;;;;;;5018480;28;20201;-80
2023/03/01 02:20:59;;;;;;;18.87;13.23;;;;;;;;;;5032577;28;20194;-80
2023/03/01 02:23:26;;;;;;;19.53;13.40;;;;;;;;;;5033034;28;20244;-80
2023/03/01 02:25:57;;;;;;;19.50;13.50;;;;;;;;;;5035682;28;20191;-80
2023/03/01 02:28:23;;;;;;;21.73;13.07;;;;;;;;;;5040544;28;20265;-79
2023/03/01 02:33:38;;;;;;;21.13;12.97;;;;;;;;;;5040873;28;20190;-79
2023/03/01 02:36:07;;;;;;;20.00;13.67;;;;;;;;;;5044494;28;20220;-79
2023/03/01 02:38:33;;;;;;;19.87;13.13;;;;;;;;;;5023555;28;20191;-80
2023/03/01 02:41:00;;;;;;;19.33;12.87;;;;;;;;;;5053819;28;20248;-80
2023/03/01 02:43:29;;;;;;;20.90;13.10;;;;;;;;;;5054697;28;20188;-80
2023/03/01 02:45:58;;;;;;;20.97;13.23;;;;;;;;;;5048444;28;20661;-79
2023/03/01 02:48:24;;;;;;;18.40;12.57;;;;;;;;;;5016114;28;20196;-80
2023/03/01 02:51:03;;;;;;;20.53;13.80;;;;;;;;;;5034551;28;20728;-80
2023/03/01 02:53:35;;;;;;;19.97;12.47;;;;;;;;;;5034437;28;20683;-80
2023/03/01 02:56:02;;;;;;;19.43;12.63;;;;;;;;;;5036026;28;20269;-80
2023/03/01 02:58:28;;;;;;;21.57;12.93;;;;;;;;;;5035501;28;20195;-79
2023/03/01 03:00:56;;;;;;;21.17;13.90;;;;;;;;;;5035275;28;20210;-80
2023/03/01 03:03:22;;;;;;;21.67;14.17;;;;;;;;;;5051376;28;20194;-81
2023/03/01 03:05:48;;;;;;;20.47;13.73;;;;;;;;;;5057973;28;20182;-77
2023/03/01 03:08:23;;;;;;;18.47;13.07;;;;;;;;;;5055996;28;20189;-79
2023/03/01 03:10:49;;;;;;;18.27;11.97;;;;;;;;;;5036166;28;20209;-79
2023/03/01 03:13:16;;;;;;;18.83;12.00;;;;;;;;;;5035745;28;20269;-79
2023/03/01 03:15:43;;;;;;;19.53;13.00;;;;;;;;;;5060188;28;20177;-77
2023/03/01 03:18:14;;;;;;;17.90;12.37;;;;;;;;;;5056026;28;20266;-80
2023/03/01 03:20:40;;;;;;;19.97;12.57;;;;;;;;;;5020820;28;20186;-80
2023/03/01 03:23:06;;;;;;;16.60;11.90;;;;;;;;;;5019735;28;20181;-80
2023/03/01 03:25:32;;;;;;;21.50;13.20;;;;;;;;;;5019716;28;20277;-80
2023/03/01 03:27:59;;;;;;;20.53;12.87;;;;;;;;;;5035636;28;20182;-80
2023/03/01 03:30:29;;;;;;;20.67;13.17;;;;;;;;;;5020593;28;20206;-79
2023/03/01 03:32:56;;;;;;;21.17;13.30;;;;;;;;;;5018890;28;20188;-80
2023/03/01 03:35:29;;;;;;;22.30;13.57;;;;;;;;;;5050828;28;20650;-79
2023/03/01 03:38:02;;;;;;;23.33;14.53;;;;;;;;;;5018342;28;20269;-79
2023/03/01 03:40:30;;;;;;;23.37;14.10;;;;;;;;;;5049990;28;20285;-78
2023/03/01 03:42:56;;;;;;;22.13;14.13;;;;;;;;;;5022650;28;20196;-80
2023/03/01 03:45:22;;;;;;;23.10;14.43;;;;;;;;;;5022893;28;20258;-79
2023/03/01 03:47:48;;;;;;;21.00;14.30;;;;;;;;;;5049521;28;20268;-80
2023/03/01 03:50:15;;;;;;;25.07;15.33;;;;;;;;;;5044135;28;20210;-79
2023/03/01 03:52:42;;;;;;;24.30;14.90;;;;;;;;;;5058285;28;20208;-79
2023/03/01 03:55:10;;;;;;;21.40;13.67;;;;;;;;;;5042703;28;20197;-80
2023/03/01 03:57:36;;;;;;;23.27;13.80;;;;;;;;;;5040588;28;20178;-79
2023/03/01 04:00:12;;;;;;;21.50;13.93;;;;;;;;;;5022092;28;20217;-78
2023/03/01 04:02:44;;;;;;;23.53;14.33;;;;;;;;;;5031487;28;20278;-79
2023/03/01 04:05:11;;;;;;;21.73;13.80;;;;;;;;;;5037191;28;20685;-79
2023/03/01 04:07:38;;;;;;;21.57;14.30;;;;;;;;;;5056322;28;20277;-79
2023/03/01 04:10:06;;;;;;;22.30;15.07;;;;;;;;;;5052451;28;20189;-80
2023/03/01 04:12:33;;;;;;;23.77;14.87;;;;;;;;;;5054868;28;20205;-79
2023/03/01 04:15:00;;;;;;;23.17;15.30;;;;;;;;;;5053020;28;20458;-79
2023/03/01 04:17:26;;;;;;;24.77;15.17;;;;;;;;;;5022577;28;20277;-79
2023/03/01 04:19:52;;;;;;;24.40;15.23;;;;;;;;;;5038069;28;20201;-79
2023/03/01 04:22:19;;;;;;;24.00;15.03;;;;;;;;;;5035965;28;20221;-80
2023/03/01 04:24:45;;;;;;;25.30;15.00;;;;;;;;;;5022221;28;20240;-79
2023/03/01 04:27:12;;;;;;;23.23;15.20;;;;;;;;;;5024601;28;20185;-77
2023/03/01 04:29:38;;;;;;;23.63;14.93;;;;;;;;;;5020632;28;20300;-79
2023/03/01 04:32:04;;;;;;;24.00;14.93;;;;;;;;;;5066686;28;20266;-78
2023/03/01 04:34:30;;;;;;;25.70;15.63;;;;;;;;;;5041105;28;20186;-78
2023/03/01 04:36:57;;;;;;;23.80;15.53;;;;;;;;;;5034586;28;20193;-78
2023/03/01 04:39:23;;;;;;;22.87;15.13;;;;;;;;;;5038378;28;20727;-78
2023/03/01 04:41:49;;;;;;;25.07;15.33;;;;;;;;;;5022466;28;20296;-78
2023/03/01 04:44:15;;;;;;;21.23;14.50;;;;;;;;;;5042066;28;20185;-78
2023/03/01 04:46:41;;;;;;;25.70;15.73;;;;;;;;;;5054487;28;20215;-77
2023/03/01 04:49:07;;;;;;;21.90;14.97;;;;;;;;;;5015871;28;20185;-78
2023/03/01 04:51:34;;;;;;;23.77;15.13;;;;;;;;;;5035649;28;20213;-78
2023/03/01 04:54:00;;;;;;;21.53;14.90;;;;;;;;;;5021269;28;20198;-79
2023/03/01 04:56:26;;;;;;;21.93;14.60;;;;;;;;;;5055861;28;20182;-78
2023/03/01 04:58:56;;;;;;;26.47;16.07;;;;;;;;;;5054117;28;20253;-79
2023/03/01 05:01:22;;;;;;;25.93;15.03;;;;;;;;;;5054034;28;20212;-79
2023/03/01 05:03:49;;;;;;;23.97;15.20;;;;;;;;;;5042519;28;20186;-79
2023/03/01 05:06:16;;;;;;;21.30;14.50;;;;;;;;;;5036770;28;20193;-79
2023/03/01 05:08:43;;;;;;;22.63;16.95;;;;;;;;;;5023886;28;20803;-80
2023/03/01 05:11:10;;;;;;;22.73;14.80;;;;;;;;;;5025405;28;20217;-79
2023/03/01 05:13:37;;;;;;;22.80;14.63;;;;;;;;;;5023542;28;20197;-79
2023/03/01 05:16:05;;;;;;;22.67;14.93;;;;;;;;;;5035674;28;20658;-78
2023/03/01 05:18:32;;;;;;;21.77;14.13;;;;;;;;;;5029902;28;20193;-79
2023/03/01 05:21:03;;;;;;;21.87;15.00;;;;;;;;;;5056501;28;20205;-79
2023/03/01 05:23:30;;;;;;;21.50;14.40;;;;;;;;;;5058695;28;20610;-79
2023/03/01 05:26:00;;;;;;;20.60;14.83;;;;;;;;;;5040126;28;20185;-79
2023/03/01 05:28:28;;;;;;;22.30;13.57;;;;;;;;;;5056344;28;20248;-79
2023/03/01 05:30:54;;;;;;;21.43;13.77;;;;;;;;;;5036686;28;20278;-79
2023/03/01 05:33:21;;;;;;;21.53;13.80;;;;;;;;;;5054697;28;20182;-79
2023/03/01 05:35:48;;;;;;;20.37;13.50;;;;;;;;;;5053522;28;20190;-79
2023/03/01 05:38:14;;;;;;;22.57;14.43;;;;;;;;;;5033678;28;20761;-80
2023/03/01 05:40:41;;;;;;;22.50;14.70;;;;;;;;;;5055371;28;20669;-80
2023/03/01 05:43:07;;;;;;;20.77;13.53;;;;;;;;;;5037573;28;20186;-80
2023/03/01 05:45:36;;;;;;;24.83;15.33;;;;;;;;;;5038293;28;20182;-79
2023/03/01 05:48:02;;;;;;;33.60;26.45;;;;;;;;;;5036691;28;20450;-80
2023/03/01 05:50:29;;;;;;;24.23;17.17;;;;;;;;;;5056887;28;20210;-78
2023/03/01 05:52:59;;;;;;;22.03;14.93;;;;;;;;;;5034051;28;20209;-77
2023/03/01 05:55:26;;;;;;;22.70;14.20;;;;;;;;;;5032068;28;20193;-77
2023/03/01 05:57:52;;;;;;;20.20;13.03;;;;;;;;;;5033036;28;20193;-78
2023/03/01 06:00:21;;;;;;;23.50;15.03;;;;;;;;;;5052428;28;20177;-82
2023/03/01 06:02:48;;;;;;;22.03;15.00;;;;;;;;;;5035951;28;20260;-82
2023/03/01 06:05:14;;;;;;;21.97;14.63;;;;;;;;;;5015599;28;20187;-80
2023/03/01 06:07:41;;;;;;;23.83;14.93;;;;;;;;;;5036996;28;20565;-77
2023/03/01 06:10:08;;;;;;;21.23;13.93;;;;;;;;;;5051671;28;20234;-80
2023/03/01 06:12:35;;;;;;;22.53;14.37;;;;;;;;;;5019839;28;20210;-78
2023/03/01 06:15:01;;;;;;;19.70;13.30;;;;;;;;;;5055682;28;20189;-78
2023/03/01 06:17:32;;;;;;;22.07;14.30;;;;;;;;;;5035641;28;20206;-79
2023/03/01 06:19:58;;;;;;;21.03;14.73;;;;;;;;;;5036552;28;20182;-79
2023/03/01 06:22:24;;;;;;;21.00;13.70;;;;;;;;;;5053224;28;20216;-79
2023/03/01 06:24:50;;;;;;;22.10;14.20;;;;;;;;;;5052860;28;20323;-80
2023/03/01 06:27:19;;;;;;;23.30;14.87;;;;;;;;;;5059984;28;20196;-79
2023/03/01 06:29:48;;;;;;;20.40;14.17;;;;;;;;;;5028493;28;20245;-77
2023/03/01 06:32:15;;;;;;;23.40;15.00;;;;;;;;;;5021402;28;20217;-80
2023/03/01 06:34:41;;;;;;;23.80;13.50;;;;;;;;;;5040845;28;20173;-81
2023/03/01 06:37:07;;;;;;;20.67;14.23;;;;;;;;;;5029378;28;20261;-81
2023/03/01 06:39:34;;;;;;;20.87;14.60;;;;;;;;;;5029726;28;20188;-80
2023/03/01 06:42:00;;;;;;;21.37;13.90;;;;;;;;;;5024330;28;20281;-80
2023/03/01 06:44:26;;;;;;;25.37;17.03;;;;;;;;;;5058297;28;20189;-80
2023/03/01 06:46:52;;;;;;;21.73;14.67;;;;;;;;;;5037379;28;20206;-81
2023/03/01 06:49:19;;;;;;;23.17;15.07;;;;;;;;;;5037094;28;20193;-78
2023/03/01 06:51:46;;;;;;;21.77;13.67;;;;;;;;;;5022379;28;20352;-79
2023/03/01 06:54:12;;;;;;;21.67;14.20;;;;;;;;;;5022031;28;20177;-78
2023/03/01 06:56:39;;;;;;;24.97;15.90;;;;;;;;;;5051100;28;20185;-81
2023/03/01 06:59:05;;;;;;;24.23;14.87;;;;;;;;;;5055046;28;20526;-78
2023/03/01 07:01:31;;;;;;;23.97;15.87;;;;;;;;;;5044080;28;20209;-84
2023/03/01 07:03:57;;;;;;;22.10;14.97;;;;;;;;;;5045647;28;20265;-88
2023/03/01 07:06:24;;;;;;;24.17;15.57;;;;;;;;;;5046496;28;20589;-85
2023/03/01 07:08:50;;;;;;;24.13;16.07;;;;;;;;;;5040975;28;20824;-84
2023/03/01 07:11:16;;;;;;;23.40;15.43;;;;;;;;;;5041196;28;20221;-86
2023/03/01 07:13:42;;;;;;;26.70;15.43;;;;;;;;;;5043545;28;20188;-84
2023/03/01 07:16:09;;;;;;;23.07;14.73;;;;;;;;;;5040514;28;20194;-79
2023/03/01 07:18:35;;;;;;;20.23;13.07;;;;;;;;;;5035953;28;20190;-78
2023/03/01 07:21:06;;;;;;;22.47;14.43;;;;;;;;;;5009276;28;20700;-79
2023/03/01 07:23:32;;;;;;;21.93;14.60;;;;;;;;;;5040071;28;20266;-85
2023/03/01 07:26:00;;;;;;;24.00;14.83;;;;;;;;;;5028014;28;20186;-85
2023/03/01 07:28:27;;;;;;;21.67;14.40;;;;;;;;;;5042262;28;20190;-80
2023/03/01 07:30:53;;;;;;;24.07;14.63;;;;;;;;;;5044615;28;20321;-85
2023/03/01 07:33:20;;;;;;;22.57;14.60;;;;;;;;;;5020944;28;20186;-85
2023/03/01 07:35:48;;;;;;;19.63;13.60;;;;;;;;;;5039257;28;20182;-84
2023/03/01 07:38:16;;;;;;;21.33;14.30;;;;;;;;;;5010657;28;20205;-85
2023/03/01 07:40:44;;;;;;;22.63;15.17;;;;;;;;;;5012066;28;20186;-84
2023/03/01 07:43:10;;;;;;;20.60;13.90;;;;;;;;;;5011682;28;20179;-85
2023/03/01 07:45:36;;;;;;;23.00;15.00;;;;;;;;;;5035006;28;20208;-85
2023/03/01 07:48:02;;;;;;;22.53;15.47;;;;;;;;;;5016591;28;20193;-85
2023/03/01 07:50:28;;;;;;;22.00;13.93;;;;;;;;;;5052002;28;20245;-84
2023/03/01 07:52:55;;;;;;;21.97;14.80;;;;;;;;;;5016028;28;20207;-85
2023/03/01 07:55:21;;;;;;;23.00;15.03;;;;;;;;;;5035852;28;20212;-84
2023/03/01 07:57:49;;;;;;;24.33;15.50;;;;;;;;;;5014061;28;20202;-85
2023/03/01 08:00:15;;;;;;;24.83;14.37;;;;;;;;;;5049720;28;20182;-85
2023/03/01 08:02:41;;;;;;;22.37;15.43;;;;;;;;;;5033923;28;20212;-84
2023/03/01 08:05:09;;;;;;;23.63;15.27;;;;;;;;;;5036291;28;20185;-84
2023/03/01 08:07:36;;;;;;;23.50;14.77;;;;;;;;;;5025560;28;20257;-85
2023/03/01 08:10:03;;;;;;;21.93;14.53;;;;;;;;;;5051040;28;20212;-86
2023/03/01 08:12:33;;;;;;;24.20;15.30;;;;;;;;;;5032876;28;20217;-85
2023/03/01 08:15:01;;;;;;;19.33;13.73;;;;;;;;;;5033464;28;20197;-84
2023/03/01 08:17:27;;;;;;;20.87;14.03;;;;;;;;;;5028557;28;20299;-85
2023/03/01 08:19:56;;;;;;;21.63;14.27;;;;;;;;;;5030853;28;20853;-84
2023/03/01 08:22:23;;;;;;;21.77;14.63;;;;;;;;;;5036272;28;20216;-86
2023/03/01 08:24:49;;;;;;;21.30;14.33;;;;;;;;;;5028262;28;20189;-85
2023/03/01 08:27:16;;;;;;;23.83;15.70;;;;;;;;;;5052032;28;20273;-84
2023/03/01 08:29:43;;;;;;;24.37;15.10;;;;;;;;;;5032635;28;20189;-83
2023/03/01 08:32:11;;;;;;;23.63;15.77;;;;;;;;;;5017244;28;20304;-84
2023/03/01 08:34:38;;;;;;;24.23;14.60;;;;;;;;;;5032653;28;20181;-84
2023/03/01 08:37:04;;;;;;;23.60;16.33;;;;;;;;;;5021073;28;20182;-85
2023/03/01 08:39:30;;;;;;;21.60;15.57;;;;;;;;;;5054708;28;20357;-85
2023/03/01 08:41:57;;;;;;;23.73;15.43;;;;;;;;;;5066033;28;20215;-84
2023/03/01 08:44:26;;;;;;;23.30;16.00;;;;;;;;;;5024360;28;20257;-84
2023/03/01 08:46:55;;;;;;;24.63;16.30;;;;;;;;;;5025463;28;20186;-84
2023/03/01 08:49:21;;;;;;;22.57;15.73;;;;;;;;;;5023858;28;20581;-85
2023/03/01 08:51:48;;;;;;;21.73;14.90;;;;;;;;;;5037762;28;20228;-84
2023/03/01 08:54:20;;;;;;;25.80;16.20;;;;;;;;;;5026247;28;20197;-84
2023/03/01 08:56:46;;;;;;;24.87;17.00;;;;;;;;;;5041869;28;20197;-84
2023/03/01 08:59:13;;;;;;;23.90;15.77;;;;;;;;;;5038701;28;20190;-85
2023/03/01 09:01:40;;;;;;;24.60;16.97;;;;;;;;;;5020998;28;20240;-84
2023/03/01 09:04:07;;;;;;;22.97;16.43;;;;;;;;;;5052198;28;20243;-86
2023/03/01 09:06:35;;;;;;;22.03;15.50;;;;;;;;;;5048966;28;20189;-84
2023/03/01 09:09:02;;;;;;;23.87;15.80;;;;;;;;;;5052667;28;20196;-80
2023/03/01 09:11:28;;;;;;;23.57;16.60;;;;;;;;;;5045687;28;20217;-78
2023/03/01 09:13:54;;;;;;;24.47;16.20;;;;;;;;;;5015306;28;20671;-82
2023/03/01 09:16:21;;;;;;;25.77;17.03;;;;;;;;;;5029361;28;20220;-76
2023/03/01 09:18:51;;;;;;;23.90;16.07;;;;;;;;;;5014399;28;20257;-82
2023/03/01 09:21:18;;;;;;;25.07;16.83;;;;;;;;;;5029963;28;20275;-80
2023/03/01 09:23:46;;;;;;;24.07;16.60;;;;;;;;;;5033314;28;20193;-81
2023/03/01 09:26:13;;;;;;;24.70;16.17;;;;;;;;;;5029681;28;20179;-80
2023/03/01 09:28:44;;;;;;;24.33;16.47;;;;;;;;;;5051455;28;20196;-81
2023/03/01 09:31:12;;;;;;;25.87;16.20;;;;;;;;;;5033031;28;20263;-80
2023/03/01 09:33:39;;;;;;;23.40;16.23;;;;;;;;;;5041817;28;20183;-79
2023/03/01 09:36:06;;;;;;;24.07;16.10;;;;;;;;;;5046504;28;20272;-79
2023/03/01 09:38:33;;;;;;;24.13;16.40;;;;;;;;;;5031633;28;20192;-79
2023/03/01 09:40:59;;;;;;;24.97;16.40;;;;;;;;;;5033500;28;20217;-79
2023/03/01 09:43:26;;;;;;;25.97;16.40;;;;;;;;;;5053806;28;20196;-80
2023/03/01 09:45:54;;;;;;;25.17;16.97;;;;;;;;;;5020541;28;20197;-80
2023/03/01 09:48:23;;;;;;;23.80;17.27;;;;;;;;;;5031384;28;20278;-80
2023/03/01 09:50:50;;;;;;;24.27;16.40;;;;;;;;;;5049625;28;20229;-81
2023/03/01 09:53:17;;;;;;;23.10;16.47;;;;;;;;;;5049768;28;20198;-82
2023/03/01 09:55:50;;;;;;;25.80;17.03;;;;;;;;;;5038835;28;20174;-82
2023/03/01 09:58:29;;;;;;;25.37;16.73;;;;;;;;;;5020939;28;20734;-82
2023/03/01 10:00:57;;;;;;;22.20;15.03;;;;;;;;;;5035593;28;20220;-81
2023/03/01 10:03:28;;;;;;;23.80;15.93;;;;;;;;;;5020461;28;20627;-82
2023/03/01 10:06:13;;;;;;;25.57;16.83;;;;;;;;;;5040289;28;20174;-81
2023/03/01 10:08:54;;;;;;;22.57;15.27;;;;;;;;;;5056799;28;20219;-81
2023/03/01 10:11:26;;;;;;;23.87;16.70;;;;;;;;;;5038233;28;20217;-81
2023/03/01 10:14:01;;;;;;;23.30;16.43;;;;;;;;;;5032512;28;20190;-81
2023/03/01 10:16:46;;;;;;;22.47;15.20;;;;;;;;;;5034067;28;20182;-81
2023/03/01 10:19:14;;;;;;;22.17;16.40;;;;;;;;;;5015654;28;20190;-80
2023/03/01 10:21:46;;;;;;;21.80;15.73;;;;;;;;;;5049921;28;20222;-82
2023/03/01 10:24:13;;;;;;;22.17;15.57;;;;;;;;;;5016471;28;20269;-81
2023/03/01 10:26:55;;;;;;;23.93;16.50;;;;;;;;;;5049985;28;20193;-81
2023/03/01 10:29:24;;;;;;;23.30;16.50;;;;;;;;;;5034601;28;20336;-80
2023/03/01 10:31:51;;;;;;;24.50;16.03;;;;;;;;;;5012384;28;20220;-81
2023/03/01 10:34:30;;;;;;;25.10;17.07;;;;;;;;;;5039666;28;20185;-80
2023/03/01 10:37:24;;;;;;;23.53;16.37;;;;;;;;;;5030108;28;20186;-81
2023/03/01 10:40:09;;;;;;;25.77;17.30;;;;;;;;;;5037054;28;20236;-78
2023/03/01 10:42:46;;;;;;;22.40;16.10;;;;;;;;;;5033244;28;20221;-76
2023/03/01 10:45:30;;;;;;;24.57;16.80;;;;;;;;;;5030056;28;20185;-79
2023/03/01 10:48:12;;;;;;;23.33;16.93;;;;;;;;;;5024343;28;20618;-77
2023/03/01 10:50:39;;;;;;;25.30;16.33;;;;;;;;;;5035938;28;20209;-82
2023/03/01 10:53:16;;;;;;;24.37;16.30;;;;;;;;;;5024279;28;20170;-79
2023/03/01 10:55:42;;;;;;;24.73;16.67;;;;;;;;;;5018332;28;20205;-79
2023/03/01 10:58:20;;;;;;;24.03;17.17;;;;;;;;;;5031977;28;20198;-79
2023/03/01 11:00:49;;;;;;;23.90;16.40;;;;;;;;;;5051991;28;20192;-78
2023/03/01 11:03:23;;;;;;;22.60;15.70;;;;;;;;;;5024178;28;20206;-78
2023/03/01 11:05:54;;;;;;;23.30;17.07;;;;;;;;;;5047278;28;20198;-78
2023/03/01 11:08:48;;;;;;;24.67;15.83;;;;;;;;;;5035383;28;20189;-79
2023/03/01 11:11:21;;;;;;;21.80;15.37;;;;;;;;;;5024299;28;20217;-79
2023/03/01 11:14:03;;;;;;;24.00;16.67;;;;;;;;;;5049938;28;20186;-79
2023/03/01 11:16:34;;;;;;;20.93;15.87;;;;;;;;;;5035356;28;20185;-78
2023/03/01 11:19:05;;;;;;;24.47;16.87;;;;;;;;;;5028595;28;20257;-77
2023/03/01 11:21:38;;;;;;;23.60;16.07;;;;;;;;;;5048113;28;20245;-80
2023/03/01 11:24:10;;;;;;;21.40;15.77;;;;;;;;;;5013727;28;20205;-80
2023/03/01 11:26:43;;;;;;;20.77;14.93;;;;;;;;;;5049113;28;20185;-80
2023/03/01 11:29:28;;;;;;;24.53;15.80;;;;;;;;;;5015814;28;20200;-79
2023/03/01 11:32:08;;;;;;;20.30;15.03;;;;;;;;;;5048305;28;20205;-78
2023/03/01 11:34:56;;;;;;;23.57;15.97;;;;;;;;;;5046608;28;20367;-77
2023/03/01 11:37:33;;;;;;;23.50;16.20;;;;;;;;;;5045000;28;20209;-78
2023/03/01 11:40:13;;;;;;;21.20;15.40;;;;;;;;;;5046091;28;20178;-78
2023/03/01 11:42:53;;;;;;;22.53;16.27;;;;;;;;;;5047486;28;20213;-80
2023/03/01 11:45:26;;;;;;;25.03;17.13;;;;;;;;;;5045447;28;20788;-83
2023/03/01 11:47:52;;;;;;;21.20;15.03;;;;;;;;;;5018074;28;20186;-78
2023/03/01 11:50:39;;;;;;;22.02;16.50;;;;;;;;;;5044144;28;20842;-79
2023/03/01 11:53:05;;;;;;;20.07;14.87;;;;;;;;;;5038935;28;20186;-78
2023/03/01 11:55:32;;;;;;;20.97;15.93;;;;;;;;;;5048855;28;20182;-76
2023/03/01 11:58:12;;;;;;;20.47;14.77;;;;;;;;;;5049010;28;20178;-76
2023/03/01 12:00:39;;;;;;;21.53;15.97;;;;;;;;;;5011996;28;20202;-79
2023/03/01 12:03:27;;;;;;;20.73;15.73;;;;;;;;;;5029349;28;20182;-77
2023/03/01 12:06:23;;;;;;;20.43;15.33;;;;;;;;;;5047438;28;20190;-76
2023/03/01 12:08:53;;;;;;;19.70;14.80;;;;;;;;;;5046169;28;20558;-79
2023/03/01 12:11:52;;;;;;;23.97;16.13;;;;;;;;;;5049234;28;20217;-79
2023/03/01 12:14:32;;;;;;;19.70;15.83;;;;;;;;;;5049558;28;20174;-77
2023/03/01 12:17:18;;;;;;;21.70;16.30;;;;;;;;;;5052576;28;20190;-76
2023/03/01 12:20:03;;;;;;;19.73;14.93;;;;;;;;;;5052294;28;20206;-80
2023/03/01 12:22:49;;;;;;;21.20;16.10;;;;;;;;;;5010945;28;20216;-79
2023/03/01 12:25:19;;;;;;;20.80;15.00;;;;;;;;;;5043610;28;20554;-79
2023/03/01 12:28:10;;;;;;;22.33;15.53;;;;;;;;;;5047964;28;20557;-79
2023/03/01 12:30:40;;;;;;;21.17;15.43;;;;;;;;;;5027970;28;20278;-79
2023/03/01 12:33:26;;;;;;;21.73;16.07;;;;;;;;;;5014182;28;20686;-79
2023/03/01 12:36:06;;;;;;;20.20;14.67;;;;;;;;;;5040664;28;20178;-79
2023/03/01 12:38:46;;;;;;;19.23;15.33;;;;;;;;;;5047261;28;20193;-77
2023/03/01 12:41:18;;;;;;;19.33;14.83;;;;;;;;;;5041742;28;20697;-78
2023/03/01 12:43:53;;;;;;;18.40;15.03;;;;;;;;;;5030085;28;20195;-77
2023/03/01 12:46:25;;;;;;;18.97;15.17;;;;;;;;;;5047851;28;20700;-78
2023/03/01 12:49:16;;;;;;;16.10;13.90;;;;;;;;;;5029063;28;20182;-77
2023/03/01 12:51:45;;;;;;;19.53;14.83;;;;;;;;;;5044202;28;20213;-79
2023/03/01 12:54:26;;;;;;;18.87;15.17;;;;;;;;;;5045554;28;20689;-77
2023/03/01 12:57:01;;;;;;;16.77;13.70;;;;;;;;;;5044429;28;20291;-77
2023/03/01 12:59:36;;;;;;;17.03;13.73;;;;;;;;;;5041896;28;20206;-76
2023/03/01 13:02:26;;;;;;;16.90;13.70;;;;;;;;;;5042808;28;20215;-76
2023/03/01 13:05:08;;;;;;;17.90;14.20;;;;;;;;;;5044631;28;20681;-75
2023/03/01 13:07:42;;;;;;;16.60;13.77;;;;;;;;;;5038193;28;20186;-76
2023/03/01 13:10:27;;;;;;;20.03;14.53;;;;;;;;;;5047771;28;20715;-74
2023/03/01 13:12:55;;;;;;;17.60;13.93;;;;;;;;;;5045288;28;20717;-79
2023/03/01 13:15:24;;;;;;;17.70;13.03;;;;;;;;;;5045411;28;20198;-76
2023/03/01 13:18:12;;;;;;;16.13;13.83;;;;;;;;;;5047078;28;20632;-77
2023/03/01 13:20:47;;;;;;;16.60;13.73;;;;;;;;;;5047337;28;20198;-72
2023/03/01 13:23:22;;;;;;;16.27;13.63;;;;;;;;;;5047720;28;20260;-78
2023/03/01 13:26:01;;;;;;;18.87;13.77;;;;;;;;;;5047632;28;20177;-75
2023/03/01 13:28:49;;;;;;;15.07;12.70;;;;;;;;;;5044495;28;21630;-76
2023/03/01 13:31:15;;;;;;;14.67;12.47;;;;;;;;;;5049442;28;20205;-78
2023/03/01 13:33:46;;;;;;;13.97;11.97;;;;;;;;;;5047771;28;20209;-78
2023/03/01 13:36:42;;;;;;;17.70;12.03;;;;;;;;;;5042305;28;20720;-77
2023/03/01 13:39:28;;;;;;;13.97;11.97;;;;;;;;;;5044975;28;20205;-78
2023/03/01 13:41:57;;;;;;;14.60;12.07;;;;;;;;;;5049807;28;20206;-83
2023/03/01 13:44:32;;;;;;;13.67;11.67;;;;;;;;;;5018727;28;20287;-78
2023/03/01 13:47:00;;;;;;;15.13;12.17;;;;;;;;;;5031750;28;20188;-77
2023/03/01 13:49:28;;;;;;;14.33;11.97;;;;;;;;;;5047472;28;20196;-79
2023/03/01 13:52:02;;;;;;;13.60;11.87;;;;;;;;;;5044600;28;20305;-81
2023/03/01 13:54:30;;;;;;;15.13;12.70;;;;;;;;;;5034306;28;20228;-82
2023/03/01 13:56:58;;;;;;;14.90;13.10;;;;;;;;;;5034446;28;20237;-81
2023/03/01 13:59:26;;;;;;;12.90;11.63;;;;;;;;;;5036845;28;20676;-81
2023/03/01 14:01:58;;;;;;;14.63;11.83;;;;;;;;;;5033330;28;20205;-81
2023/03/01 14:04:31;;;;;;;13.70;12.20;;;;;;;;;;5051717;28;20181;-79
2023/03/01 14:07:11;;;;;;;24.50;12.47;;;;;;;;;;5041936;28;20201;-79
2023/03/01 14:09:40;;;;;;;27.70;12.13;;;;;;;;;;5051692;28;20264;-80
2023/03/01 14:12:16;;;;;;;19.07;12.13;;;;;;;;;;5045432;28;20292;-79
2023/03/01 14:14:45;;;;;;;14.50;11.40;;;;;;;;;;5049713;28;20177;-78
2023/03/01 14:17:19;;;;;;;11.83;10.57;;;;;;;;;;5031922;28;20253;-79
2023/03/01 14:19:48;;;;;;;13.73;10.90;;;;;;;;;;5053268;28;20189;-78
2023/03/01 14:22:35;;;;;;;12.67;10.73;;;;;;;;;;5047783;28;20638;-80
2023/03/01 14:25:03;;;;;;;12.97;10.67;;;;;;;;;;5034950;28;20193;-80
2023/03/01 14:27:35;;;;;;;13.90;10.60;;;;;;;;;;5050679;28;20182;-80
2023/03/01 14:30:12;;;;;;;15.03;11.70;;;;;;;;;;5039221;28;20192;-80
2023/03/01 14:32:39;;;;;;;12.67;10.27;;;;;;;;;;5051416;28;20755;-80
2023/03/01 14:35:20;;;;;;;12.17;10.50;;;;;;;;;;5033402;28;20284;-79